Home > Products > Valid Products > MTR

000
SAUS44 KLIX 230852
MTRBVE
METAR KBVE 230851Z AUTO 08004KT 10SM CLR 24/21 A3015 RMK AO2 SLP209
T02390211 55006





000
SAUS44 KLIX 230753 COR
MTRBVE
METAR KBVE 230751Z AUTO 10003KT 10SM CLR 24/21 A3015 RMK AO2 SLP208
T02390211





000
SAUS44 KLIX 230753 COR
MTRBVE
METAR KBVE 230751Z AUTO 10003KT 10SM CLR 24/21 A3015 RMK AO2 SLP208
T02390211





000
SAUS44 KLIX 230653
MTRBVE
METAR KBVE 230651Z AUTO 08003KT 10SM CLR 24/22 A3015 RMK AO2 SLP209
T02390217





000
SAUS44 KLIX 230552
MTRBVE
METAR KBVE 230551Z AUTO 09003KT 10SM CLR 24/22 A3017 RMK AO2 SLP215
T02390217 10250 20239 402610228 50001





000
SAUS44 KLIX 230552
MTRBVE
METAR KBVE 230551Z AUTO 09003KT 10SM CLR 24/22 A3017 RMK AO2 SLP215
T02390217 10250 20239 402610228 50001





000
SAUS44 KLIX 230452
MTRBVE
METAR KBVE 230451Z AUTO 08005KT 10SM CLR 24/22 A3018 RMK AO2 SLP218
T02440217





000
SAUS44 KLIX 230352
MTRBVE
METAR KBVE 230351Z AUTO 07004KT 10SM CLR 24/22 A3018 RMK AO2 SLP220
T02440217





000
SAUS44 KLIX 230252
MTRBVE
METAR KBVE 230251Z AUTO 07005KT 10SM CLR 24/22 A3016 RMK AO2 SLP214
T02440217 53006





000
SAUS44 KLIX 230152
MTRBVE
METAR KBVE 230151Z AUTO 07005KT 10SM CLR 24/22 A3016 RMK AO2 SLP211
T02440217





000
SAUS44 KLIX 230052
MTRBVE
METAR KBVE 230051Z AUTO 07005KT 10SM SCT024 25/22 A3015 RMK AO2
SLP209 T02500217





000
SAUS44 KLIX 230052
MTRBVE
METAR KBVE 230051Z AUTO 07005KT 10SM SCT024 25/22 A3015 RMK AO2
SLP209 T02500217





000
SAUS44 KLIX 222352
MTRBVE
METAR KBVE 222351Z AUTO 08006KT 10SM OVC022 25/21 A3015 RMK AO2
SLP208 T02500211 10261 20250 53001





000
SAUS44 KLIX 222352
MTRBVE
METAR KBVE 222351Z AUTO 08006KT 10SM OVC022 25/21 A3015 RMK AO2
SLP208 T02500211 10261 20250 53001





000
SAUS44 KLIX 222252
MTRBVE
METAR KBVE 222251Z AUTO 07006KT 10SM OVC019 26/21 A3014 RMK AO2
SLP207 T02560211





000
SAUS44 KLIX 222153
MTRBVE
METAR KBVE 222151Z AUTO 05006KT 10SM BKN017 26/22 A3015 RMK AO2
SLP208 T02610217





000
SAUS44 KLIX 222053
MTRBVE
METAR KBVE 222051Z AUTO 07009KT 10SM BKN017 26/21 A3014 RMK AO2
SLP207 T02560211 58007





000
SAUS44 KLIX 221952
MTRBVE
METAR KBVE 221951Z AUTO 09011KT 10SM OVC016 25/21 A3015 RMK AO2
SLP210 T02500211





000
SAUS44 KLIX 221952
MTRBVE
METAR KBVE 221951Z AUTO 09011KT 10SM OVC016 25/21 A3015 RMK AO2
SLP210 T02500211





000
SAUS44 KLIX 221852
MTRBVE
METAR KBVE 221851Z AUTO 07009KT 10SM OVC017 25/21 A3017 RMK AO2
SLP214 T02500211





000
SAUS44 KLIX 221852
MTRBVE
METAR KBVE 221851Z AUTO 07009KT 10SM OVC017 25/21 A3017 RMK AO2
SLP214 T02500211





000
SAUS44 KLIX 221752
MTRBVE
METAR KBVE 221751Z AUTO 05009KT 10SM OVC016 25/21 A3016 RMK AO2
SLP214 T02500211 10250 20228 50000





000
SAUS44 KLIX 221752
MTRBVE
METAR KBVE 221751Z AUTO 05009KT 10SM OVC016 25/21 A3016 RMK AO2
SLP214 T02500211 10250 20228 50000





000
SAUS44 KLIX 221652
MTRBVE
METAR KBVE 221651Z AUTO 04008KT 9SM OVC017 24/21 A3017 RMK AO2
SLP216 T02440206





000
SAUS44 KLIX 221639
MTRBVE
SPECI KBVE 221638Z AUTO 05009KT 9SM OVC015 25/21 A3017 RMK AO2
T02500211





000
SAUS44 KLIX 221552
MTRBVE
METAR KBVE 221551Z AUTO 05010KT 8SM OVC014 23/20 A3017 RMK AO2
SLP216 T02330200





000
SAUS44 KLIX 221552
MTRBVE
METAR KBVE 221551Z AUTO 05010KT 8SM OVC014 23/20 A3017 RMK AO2
SLP216 T02330200





000
SAUS44 KLIX 221452
MTRBVE
METAR KBVE 221451Z AUTO 04008KT 10SM OVC013 23/21 A3016 RMK AO2
SLP214 T02280206 51013





000
SAUS44 KLIX 221352
MTRBVE
METAR KBVE 221351Z AUTO 03011G18KT 8SM OVC012 23/21 A3016 RMK AO2
SLP213 T02280206





000
SAUS44 KLIX 221252
MTRBVE
METAR KBVE 221251Z AUTO 03011G18KT 8SM OVC012 23/21 A3014 RMK AO2
SLP207 T02280206





000
SAUS44 KLIX 221252
MTRBVE
METAR KBVE 221251Z AUTO 03011G18KT 8SM OVC012 23/21 A3014 RMK AO2
SLP207 T02280206





000
SAUS44 KLIX 221153
MTRBVE
METAR KBVE 221151Z AUTO 02012G18KT 7SM OVC012 23/21 A3013 RMK AO2
RAE06 SLP201 P0000 60008 70037 T02280211 10256 20228 53026





000
SAUS44 KLIX 221153
MTRBVE
METAR KBVE 221151Z AUTO 02012G18KT 7SM OVC012 23/21 A3013 RMK AO2
RAE06 SLP201 P0000 60008 70037 T02280211 10256 20228 53026





000
SAUS44 KLIX 221131 COR
MTRBVE
SPECI KBVE 221128Z AUTO 03011KT 8SM BKN012 BKN019 OVC095 23/22 A3011
RMK AO2 RAE06 P0000 T02330217





000
SAUS44 KLIX 221131 COR
MTRBVE
SPECI KBVE 221128Z AUTO 03011KT 8SM BKN012 BKN019 OVC095 23/22 A3011
RMK AO2 RAE06 P0000 T02330217





000
SAUS44 KLIX 221130 COR
MTRBVE
SPECI KBVE 221128Z AUTO 03011KT 8SM BKN012 BKN019 OVC095 23/22 A3011
RMK AO2 RAE06 P0000 T02330217





000
SAUS44 KLIX 221130 COR
MTRBVE
SPECI KBVE 221128Z AUTO 03011KT 8SM BKN012 BKN019 OVC095 23/22 A3011
RMK AO2 RAE06 P0000 T02330217





000
SAUS44 KLIX 221122 COR
MTRBVE
SPECI KBVE 221119Z AUTO 03010KT 8SM SCT012 BKN018 OVC095 23/22 A3011
RMK AO2 RAE06 P0000 T02330217





000
SAUS44 KLIX 221122 COR
MTRBVE
SPECI KBVE 221119Z AUTO 03010KT 8SM SCT012 BKN018 OVC095 23/22 A3011
RMK AO2 RAE06 P0000 T02330217





000
SAUS44 KLIX 221121 COR
MTRBVE
SPECI KBVE 221119Z AUTO 03010KT 8SM SCT012 BKN018 OVC095 23/22 A3011
RMK AO2 RAE06 P0000 T02330217





000
SAUS44 KLIX 221121 COR
MTRBVE
SPECI KBVE 221119Z AUTO 03010KT 8SM SCT012 BKN018 OVC095 23/22 A3011
RMK AO2 RAE06 P0000 T02330217





000
SAUS44 KLIX 221052
MTRBVE
METAR KBVE 221051Z AUTO 03011KT 7SM -RA SCT013 BKN050 OVC090 23/22
A3010 RMK AO2 RAB13 SLP192 P0007 T02330217





000
SAUS44 KLIX 221052
MTRBVE
METAR KBVE 221051Z AUTO 03011KT 7SM -RA SCT013 BKN050 OVC090 23/22
A3010 RMK AO2 RAB13 SLP192 P0007 T02330217





000
SAUS44 KLIX 221044
MTRBVE
SPECI KBVE 221043Z AUTO 05010G17KT 5SM RA BR SCT013 BKN034 OVC050
23/22 A3009 RMK AO2 RAB13 P0007 T02330217





000
SAUS44 KLIX 221016
MTRBVE
SPECI KBVE 221015Z AUTO 04010G18KT 7SM -RA BKN014 BKN019 BKN065
24/22 A3008 RMK AO2 RAB13 P0000 T02390217





000
SAUS44 KLIX 220952
MTRBVE
METAR KBVE 220951Z AUTO 04012G19KT 8SM SCT012 SCT016 BKN022 24/22
A3006 RMK AO2 RAB00E37 SLP180 P0001 T02390217





000
SAUS44 KLIX 220909
MTRBVE
SPECI KBVE 220908Z AUTO 05006KT 8SM -RA BKN012 BKN021 OVC028 24/23
A3005 RMK AO2 RAB00 P0001 T02440228





000
SAUS44 KLIX 220852
MTRBVE
METAR KBVE 220851Z AUTO 00000KT 10SM SCT021 BKN028 25/23 A3005 RMK
AO2 SLP174 T02500228 53004





000
SAUS44 KLIX 220752
MTRBVE
METAR KBVE 220751Z AUTO 35003KT 10SM BKN023 24/23 A3004 RMK AO2
SLP171 T02390228





000
SAUS44 KLIX 220652
MTRBVE
METAR KBVE 220651Z AUTO 32003KT 10SM CLR 24/23 A3004 RMK AO2 SLP170
T02390228





000
SAUS44 KLIX 220652
MTRBVE
METAR KBVE 220651Z AUTO 32003KT 10SM CLR 24/23 A3004 RMK AO2 SLP170
T02390228





000
SAUS44 KLIX 220552
MTRBVE
METAR KBVE 220551Z AUTO 00000KT 10SM CLR 25/23 A3004 RMK AO2 SLP172
60029 T02500228 10283 20222 403110222 58006





000
SAUS44 KLIX 220452
MTRBVE
METAR KBVE 220451Z AUTO 07004KT 10SM CLR 24/23 A3005 RMK AO2 SLP175
T02440228





000
SAUS44 KLIX 220352
MTRBVE
METAR KBVE 220351Z AUTO 05006KT 10SM CLR 25/22 A3006 RMK AO2 SLP178
T02500222





000
SAUS44 KLIX 220256 COR
MTRBVE
METAR KBVE 220251Z AUTO 05005KT 10SM CLR 25/22 A3006 RMK AO2 SLP178
60029 T02500217 53003





000
SAUS44 KLIX 220253 COR
MTRBVE
METAR KBVE 220251Z AUTO 05005KT 10SM CLR 25/22 A3006 RMK AO2 SLP178
60029 T02500217 53003





000
SAUS44 KLIX 220152
MTRBVE
METAR KBVE 220151Z AUTO VRB06KT 10SM FEW120 24/22 A3005 RMK AO2
RAE34 SLP176 P0003 T02440222





000
SAUS44 KLIX 220137
MTRBVE
SPECI KBVE 220135Z AUTO 35007KT 10SM FEW009 FEW014 SCT110 24/22
A3006 RMK AO2 RAE34 P0003 T02390222





000
SAUS44 KLIX 220100
MTRBVE
SPECI KBVE 220058Z AUTO 33010KT 4SM RA BR SCT038 BKN070 OVC110 23/21
A3005 RMK AO2 P0002 T02280206





000
SAUS44 KLIX 220100
MTRBVE
SPECI KBVE 220058Z AUTO 33010KT 4SM RA BR SCT038 BKN070 OVC110 23/21
A3005 RMK AO2 P0002 T02280206





000
SAUS44 KLIX 220053
MTRBVE
METAR KBVE 220051Z AUTO 33010G19KT 2 1/2SM RA BKN036 BKN085 OVC110
23/20 A3005 RMK AO2 RAB13 SLP177 P0026 T02280200





000
SAUS44 KLIX 220053
MTRBVE
METAR KBVE 220051Z AUTO 33010G19KT 2 1/2SM RA BKN036 BKN085 OVC110
23/20 A3005 RMK AO2 RAB13 SLP177 P0026 T02280200





000
SAUS44 KLIX 220048
MTRBVE
SPECI KBVE 220047Z AUTO 33011G19KT 1 3/4SM +RA BR BKN034 BKN041
OVC100 22/20 A3005 RMK AO2 RAB13 P0024





000
SAUS44 KLIX 220048
MTRBVE
SPECI KBVE 220047Z AUTO 33011G19KT 1 3/4SM +RA BR BKN034 BKN041
OVC100 22/20 A3005 RMK AO2 RAB13 P0024





000
SAUS44 KLIX 220039
MTRBVE
SPECI KBVE 220038Z AUTO 32012KT 1 1/4SM +RA BR BKN029 OVC038 23/21
A3005 RMK AO2 RAB13 P0005 T02280211





000
SAUS44 KLIX 220039
MTRBVE
SPECI KBVE 220038Z AUTO 32012KT 1 1/4SM +RA BR BKN029 OVC038 23/21
A3005 RMK AO2 RAB13 P0005 T02280211





000
SAUS44 KLIX 220036
MTRBVE
SPECI KBVE 220035Z AUTO 32010KT 2SM RA BR SCT029 OVC038 23/22 A3006
RMK AO2 VIS 3/4V5 RAB13 PRESRR P0000 T02330217





000
SAUS44 KLIX 220036
MTRBVE
SPECI KBVE 220035Z AUTO 32010KT 2SM RA BR SCT029 OVC038 23/22 A3006
RMK AO2 VIS 3/4V5 RAB13 PRESRR P0000 T02330217





000
SAUS44 KLIX 220007
MTRBVE
SPECI KBVE 220006Z AUTO 34013G20KT 10SM BKN027 25/21 A3003 RMK AO2
T02500211





000
SAUS44 KLIX 220007
MTRBVE
SPECI KBVE 220006Z AUTO 34013G20KT 10SM BKN027 25/21 A3003 RMK AO2
T02500211





000
SAUS44 KLIX 212353
MTRBVE
METAR KBVE 212351Z AUTO 26008KT 10SM FEW028 SCT060 SCT075 28/23
A3002 RMK AO2 SLP166 T02830228 10311 20283 53007





000
SAUS44 KLIX 212353
MTRBVE
METAR KBVE 212351Z AUTO 26008KT 10SM FEW028 SCT060 SCT075 28/23
A3002 RMK AO2 SLP166 T02830228 10311 20283 53007





000
SAUS44 KLIX 212252
MTRBVE
METAR KBVE 212251Z AUTO 25009KT 10SM FEW027 29/23 A3001 RMK AO2
SLP161 T02890228





000
SAUS44 KLIX 212252
MTRBVE
METAR KBVE 212251Z AUTO 25009KT 10SM FEW027 29/23 A3001 RMK AO2
SLP161 T02890228





000
SAUS44 KLIX 212152
MTRBVE
METAR KBVE 212151Z AUTO 23008KT 10SM FEW034 29/22 A3000 RMK AO2
SLP158 T02940222





000
SAUS44 KLIX 212152
MTRBVE
METAR KBVE 212151Z AUTO 23008KT 10SM FEW034 29/22 A3000 RMK AO2
SLP158 T02940222





000
SAUS44 KLIX 212052
MTRBVE
METAR KBVE 212051Z AUTO 19004KT 10SM CLR 30/23 A3000 RMK AO2 SLP158
T03000228 56014





000
SAUS44 KLIX 212052
MTRBVE
METAR KBVE 212051Z AUTO 19004KT 10SM CLR 30/23 A3000 RMK AO2 SLP158
T03000228 56014





000
SAUS44 KLIX 211953
MTRBVE
METAR KBVE 211951Z AUTO 00000KT 10SM FEW029 SCT041 SCT050 29/22
A3001 RMK AO2 SLP162 T02940222





000
SAUS44 KLIX 211854 COR
MTRBVE
METAR KBVE 211851Z AUTO 07005KT 9SM SCT030 29/23 A3003 RMK AO2
SLP168 T02940228





000
SAUS44 KLIX 211853 COR
MTRBVE
METAR KBVE 211851Z AUTO 07005KT 9SM SCT030 29/23 A3003 RMK AO2
SLP168 T02940228





000
SAUS44 KLIX 211853 COR
MTRBVE
METAR KBVE 211851Z AUTO 07005KT 9SM SCT030 29/23 A3003 RMK AO2
SLP168 T02940228





000
SAUS44 KLIX 211752
MTRBVE
METAR KBVE 211751Z AUTO 36003KT 10SM FEW026 SCT085 29/22 A3004 RMK
AO2 SLP172 T02940222 10300 20256 58001





000
SAUS44 KLIX 211752
MTRBVE
METAR KBVE 211751Z AUTO 36003KT 10SM FEW026 SCT085 29/22 A3004 RMK
AO2 SLP172 T02940222 10300 20256 58001





000
SAUS44 KLIX 211652
MTRBVE
METAR KBVE 211651Z AUTO 34006KT 10SM SCT085 28/23 A3006 RMK AO2
SLP179 T02830228





000
SAUS44 KLIX 211652
MTRBVE
METAR KBVE 211651Z AUTO 34006KT 10SM SCT085 28/23 A3006 RMK AO2
SLP179 T02830228





000
SAUS44 KLIX 211558 COR
MTRBVE
METAR KBVE 211551Z AUTO 35007KT 10SM CLR 28/23 A3005 RMK AO2 SLP176
T02830233





000
SAUS44 KLIX 211558 COR
MTRBVE
METAR KBVE 211551Z AUTO 35007KT 10SM CLR 28/23 A3005 RMK AO2 SLP176
T02830233





000
SAUS44 KLIX 211557 COR
MTRBVE
METAR KBVE 211551Z AUTO 35007KT 10SM CLR 28/23 A3005 RMK AO2 SLP176
T02830233





000
SAUS44 KLIX 211556 COR
MTRBVE
METAR KBVE 211551Z AUTO 35007KT 10SM CLR 28/23 A3005 RMK AO2 SLP176
T02830233





000
SAUS44 KLIX 211553 COR
MTRBVE
METAR KBVE 211551Z AUTO 35007KT 10SM CLR 28/23 A3005 RMK AO2 SLP176
T02830233





000
SAUS44 KLIX 211452
MTRBVE
METAR KBVE 211451Z AUTO VRB05KT 10SM CLR 28/23 A3004 RMK AO2 SLP173
T02830233 50003





000
SAUS44 KLIX 211452
MTRBVE
METAR KBVE 211451Z AUTO VRB05KT 10SM CLR 28/23 A3004 RMK AO2 SLP173
T02830233 50003





000
SAUS44 KLIX 211352
MTRBVE
METAR KBVE 211351Z AUTO 32006KT 10SM CLR 28/23 A3005 RMK AO2 SLP174
T02780233





000
SAUS44 KLIX 211252
MTRBVE
METAR KBVE 211251Z AUTO 33007KT 10SM CLR 27/23 A3004 RMK AO2 SLP171
T02670233





000
SAUS44 KLIX 211252
MTRBVE
METAR KBVE 211251Z AUTO 33007KT 10SM CLR 27/23 A3004 RMK AO2 SLP171
T02670233





000
SAUS44 KLIX 211152
MTRBVE
METAR KBVE 211151Z AUTO 31004KT 10SM CLR 26/23 A3004 RMK AO2 SLP170
T02560233 10278 20244 53008





000
SAUS44 KLIX 211152
MTRBVE
METAR KBVE 211151Z AUTO 31004KT 10SM CLR 26/23 A3004 RMK AO2 SLP170
T02560233 10278 20244 53008





000
SAUS44 KLIX 211052
MTRBVE
METAR KBVE 211051Z AUTO 31004KT 10SM CLR 24/23 A3002 RMK AO2 SLP165
T02440233





000
SAUS44 KLIX 211052
MTRBVE
METAR KBVE 211051Z AUTO 31004KT 10SM CLR 24/23 A3002 RMK AO2 SLP165
T02440233





000
SAUS44 KLIX 210956 COR
MTRBVE
METAR KBVE 210951Z AUTO 32004KT 10SM CLR 25/23 A3001 RMK AO2 SLP162
T02500228





000
SAUS44 KLIX 210956 COR
MTRBVE
METAR KBVE 210951Z AUTO 32004KT 10SM CLR 25/23 A3001 RMK AO2 SLP162
T02500228





000
SAUS44 KLIX 210953 COR
MTRBVE
METAR KBVE 210951Z AUTO 32004KT 10SM CLR 25/23 A3001 RMK AO2 SLP162
T02500228





000
SAUS44 KLIX 210952
MTRBVE
METAR KBVE 210951Z AUTO 32004KT 10SM CLR 25/23 A3001 RMK AO2 SLP162
T02500228





000
SAUS44 KLIX 210852
MTRBVE
METAR KBVE 210851Z AUTO 31004KT 10SM FEW021 25/23 A3001 RMK AO2
SLP163 T02500233 55006





000
SAUS44 KLIX 210852
MTRBVE
METAR KBVE 210851Z AUTO 31004KT 10SM FEW021 25/23 A3001 RMK AO2
SLP163 T02500233 55006





000
SAUS44 KLIX 210752
MTRBVE
METAR KBVE 210751Z AUTO 28004KT 10SM CLR 26/23 A3000 RMK AO2 SLP160
T02560233





000
SAUS44 KLIX 210752
MTRBVE
METAR KBVE 210751Z AUTO 28004KT 10SM CLR 26/23 A3000 RMK AO2 SLP160
T02560233





000
SAUS44 KLIX 210656 COR
MTRBVE
METAR KBVE 210651Z AUTO 27004KT 10SM SCT047 26/23 A3001 RMK AO2
SLP161 T02610233





000
SAUS44 KLIX 210654 COR
MTRBVE
METAR KBVE 210651Z AUTO 27004KT 10SM SCT047 26/23 A3001 RMK AO2
SLP161 T02610233





000
SAUS44 KLIX 210653
MTRBVE
METAR KBVE 210651Z AUTO 27004KT 10SM SCT047 26/23 A3001 RMK AO2
SLP161 T02610233





000
SAUS44 KLIX 210653
MTRBVE
METAR KBVE 210651Z AUTO 27004KT 10SM SCT047 26/23 A3001 RMK AO2
SLP161 T02610233





000
SAUS44 KLIX 210552
MTRBVE
METAR KBVE 210551Z AUTO 24006KT 10SM FEW021 FEW047 27/23 A3003 RMK
AO2 SLP169 T02670233 10283 20267 402940244 50009





000
SAUS44 KLIX 210452
MTRBVE
METAR KBVE 210451Z AUTO 25004KT 10SM FEW020 27/23 A3003 RMK AO2
SLP170 T02670233





000
SAUS44 KLIX 210352
MTRBVE
METAR KBVE 210351Z AUTO 23006KT 10SM CLR 27/23 A3001 RMK AO2 SLP163
T02670233





000
SAUS44 KLIX 210252
MTRBVE
METAR KBVE 210251Z AUTO 21007KT 10SM CLR 27/23 A3000 RMK AO2 SLP159
T02720228 51009





000
SAUS44 KLIX 210152
MTRBVE
METAR KBVE 210151Z AUTO 25004KT 10SM CLR 27/22 A2999 RMK AO2 SLP156
T02670222





000
SAUS44 KLIX 210053
MTRBVE
METAR KBVE 210051Z AUTO 23007KT 10SM CLR 27/22 A2999 RMK AO2 SLP155
T02720217





000
SAUS44 KLIX 210053
MTRBVE
METAR KBVE 210051Z AUTO 23007KT 10SM CLR 27/22 A2999 RMK AO2 SLP155
T02720217





000
SAUS44 KLIX 202352
MTRBVE
METAR KBVE 202351Z AUTO 21007KT 10SM CLR 28/22 A2997 RMK AO2 SLP150
T02830217 10294 20283 58010





000
SAUS44 KLIX 202352
MTRBVE
METAR KBVE 202351Z AUTO 21007KT 10SM CLR 28/22 A2997 RMK AO2 SLP150
T02830217 10294 20283 58010





000
SAUS44 KLIX 202252
MTRBVE
METAR KBVE 202251Z AUTO 23008KT 10SM CLR 29/21 A2999 RMK AO2 SLP154
T02890211





000
SAUS44 KLIX 202152
MTRBVE
METAR KBVE 202151Z AUTO 23010KT 10SM CLR 29/22 A3000 RMK AO2 SLP158
T02890217





000
SAUS44 KLIX 202152
MTRBVE
METAR KBVE 202151Z AUTO 23010KT 10SM CLR 29/22 A3000 RMK AO2 SLP158
T02890217





000
SAUS44 KLIX 202054 COR
MTRBVE
METAR KBVE 202051Z AUTO 24008KT 10SM FEW027 29/22 A3001 RMK AO2
SLP160 T02940222 56012





000
SAUS44 KLIX 202053 COR
MTRBVE
METAR KBVE 202051Z AUTO 24008KT 10SM FEW027 29/22 A3001 RMK AO2
SLP160 T02940222 56012





000
SAUS44 KLIX 202052
MTRBVE
METAR KBVE 202051Z AUTO 24008KT 10SM FEW027 29/22 A3001 RMK AO2
SLP160 T02940222 56012





000
SAUS44 KLIX 201952
MTRBVE
METAR KBVE 201951Z AUTO 22008KT 10SM CLR 29/21 A3001 RMK AO2 SLP161
T02940211





000
SAUS44 KLIX 201853
MTRBVE
METAR KBVE 201851Z AUTO 23008KT 200V270 10SM CLR 29/22 A3003 RMK AO2
SLP167 T02890217





000
SAUS44 KLIX 201756 COR
MTRBVE
METAR KBVE 201751Z AUTO 24007KT 10SM FEW024 FEW031 29/22 A3004 RMK
AO2 SLP172 T02940222 10294 20256 50002





000
SAUS44 KLIX 201756 COR
MTRBVE
METAR KBVE 201751Z AUTO 24007KT 10SM FEW024 FEW031 29/22 A3004 RMK
AO2 SLP172 T02940222 10294 20256 50002





000
SAUS44 KLIX 201753 COR
MTRBVE
METAR KBVE 201751Z AUTO 24007KT 10SM FEW024 FEW031 29/22 A3004 RMK
AO2 SLP172 T02940222 10294 20256 50002





000
SAUS44 KLIX 201753 COR
MTRBVE
METAR KBVE 201751Z AUTO 24007KT 10SM FEW024 FEW031 29/22 A3004 RMK
AO2 SLP172 T02940222 10294 20256 50002





000
SAUS44 KLIX 201752
MTRBVE
METAR KBVE 201751Z AUTO 24007KT 10SM FEW024 FEW031 29/22 A3004 RMK
AO2 SLP172 T02940222 10294 20256 50002





000
SAUS44 KLIX 201752
MTRBVE
METAR KBVE 201751Z AUTO 24007KT 10SM FEW024 FEW031 29/22 A3004 RMK
AO2 SLP172 T02940222 10294 20256 50002





000
SAUS44 KLIX 201657 COR
MTRBVE
METAR KBVE 201651Z AUTO 22006KT 10SM CLR 29/22 A3005 RMK AO2 SLP174
T02890217





000
SAUS44 KLIX 201657 COR
MTRBVE
METAR KBVE 201651Z AUTO 22006KT 10SM CLR 29/22 A3005 RMK AO2 SLP174
T02890217





000
SAUS44 KLIX 201655 COR
MTRBVE
METAR KBVE 201651Z AUTO 22006KT 10SM CLR 29/22 A3005 RMK AO2 SLP174
T02890217





000
SAUS44 KLIX 201654 COR
MTRBVE
METAR KBVE 201651Z AUTO 22006KT 10SM CLR 29/22 A3005 RMK AO2 SLP174
T02890217





000
SAUS44 KLIX 201653 COR
MTRBVE
METAR KBVE 201651Z AUTO 22006KT 10SM CLR 29/22 A3005 RMK AO2 SLP174
T02890217





000
SAUS44 KLIX 201653 COR
MTRBVE
METAR KBVE 201651Z AUTO 22006KT 10SM CLR 29/22 A3005 RMK AO2 SLP174
T02890217





000
SAUS44 KLIX 201552
MTRBVE
METAR KBVE 201551Z AUTO 23004KT 10SM CLR 28/22 A3005 RMK AO2 SLP174
T02830222





000
SAUS44 KLIX 201452
MTRBVE
METAR KBVE 201451Z AUTO VRB04KT 10SM CLR 28/23 A3003 RMK AO2 SLP170
T02780228 50009





000
SAUS44 KLIX 201452
MTRBVE
METAR KBVE 201451Z AUTO VRB04KT 10SM CLR 28/23 A3003 RMK AO2 SLP170
T02780228 50009





000
SAUS44 KLIX 201352
MTRBVE
METAR KBVE 201351Z AUTO 16004KT 10SM CLR 27/23 A3004 RMK AO2 SLP170
T02720228





000
SAUS44 KLIX 201352
MTRBVE
METAR KBVE 201351Z AUTO 16004KT 10SM CLR 27/23 A3004 RMK AO2 SLP170
T02720228





000
SAUS44 KLIX 201252
MTRBVE
METAR KBVE 201251Z AUTO 18006KT 10SM CLR 27/23 A3002 RMK AO2 SLP164
T02670228





000
SAUS44 KLIX 201252
MTRBVE
METAR KBVE 201251Z AUTO 18006KT 10SM CLR 27/23 A3002 RMK AO2 SLP164
T02670228





000
SAUS44 KLIX 201152
MTRBVE
METAR KBVE 201151Z AUTO 17004KT 10SM CLR 26/23 A3001 RMK AO2 SLP161
T02560233 10267 20244 53004





000
SAUS44 KLIX 201152
MTRBVE
METAR KBVE 201151Z AUTO 17004KT 10SM CLR 26/23 A3001 RMK AO2 SLP161
T02560233 10267 20244 53004





000
SAUS44 KLIX 201053
MTRBVE
METAR KBVE 201051Z AUTO 18005KT 10SM CLR 25/23 A3000 RMK AO2 SLP157
T02500228





000
SAUS44 KLIX 200956 COR
MTRBVE
METAR KBVE 200951Z AUTO 20004KT 10SM CLR 26/22 A2999 RMK AO2 SLP155
T02560222





000
SAUS44 KLIX 200956 COR
MTRBVE
METAR KBVE 200951Z AUTO 20004KT 10SM CLR 26/22 A2999 RMK AO2 SLP155
T02560222





000
SAUS44 KLIX 200954 COR
MTRBVE
METAR KBVE 200951Z AUTO 20004KT 10SM CLR 26/22 A2999 RMK AO2 SLP155
T02560222





000
SAUS44 KLIX 200953 COR
MTRBVE
METAR KBVE 200951Z AUTO 20004KT 10SM CLR 26/22 A2999 RMK AO2 SLP155
T02560222





000
SAUS44 KLIX 200953
MTRBVE
METAR KBVE 200951Z AUTO 20004KT 10SM CLR 26/22 A2999 RMK AO2 SLP155
T02560222





000
SAUS44 KLIX 200953
MTRBVE
METAR KBVE 200951Z AUTO 20004KT 10SM CLR 26/22 A2999 RMK AO2 SLP155
T02560222





    US Dept of Commerce
    National Oceanic and Atmospheric Administration
    National Weather Service
    1325 East West Highway
    Silver Spring, MD 20910
    Page Author: NWS Internet Services Team
Disclaimer
Information Quality
Credits
Glossary
Privacy Policy
Freedom of Information Act (FOIA)
About Us
Career Opportunities